createdAt,value
2018-11-05T00:00:26.967Z,61.67
2018-11-05T00:05:30.687Z,62.93
2018-11-05T00:10:34.410Z,65.13
2018-11-05T00:15:38.134Z,60.67
2018-11-05T00:20:41.851Z,63.57
2018-11-05T00:25:45.594Z,69.43
2018-11-05T00:30:49.235Z,70.23
2018-11-05T00:35:52.911Z,72.67
2018-11-05T00:40:56.571Z,69.50
2018-11-05T00:46:00.256Z,77.87
2018-11-05T00:51:03.987Z,94.57
2018-11-05T00:56:07.683Z,80.73
2018-11-05T01:01:11.334Z,86.13
2018-11-05T01:06:14.978Z,88.43
2018-11-05T01:11:18.598Z,74.10
2018-11-05T01:16:22.221Z,88.70
2018-11-05T01:21:25.843Z,91.03
2018-11-05T01:26:29.500Z,101.70
2018-11-05T01:31:33.152Z,90.47
2018-11-05T01:36:36.795Z,93.50
2018-11-05T01:41:40.411Z,90.60
2018-11-05T01:46:44.073Z,98.83
2018-11-05T01:51:47.706Z,80.70
2018-11-05T01:56:51.376Z,81.93
2018-11-05T02:01:55.022Z,93.13
2018-11-05T02:06:58.741Z,103.13
2018-11-05T02:12:02.373Z,104.43
2018-11-05T02:17:06.091Z,98.50
2018-11-05T02:22:09.825Z,88.47
2018-11-05T02:27:13.548Z,93.43
2018-11-05T02:32:17.173Z,85.67
2018-11-05T02:37:20.835Z,102.30
2018-11-05T02:42:24.572Z,91.80
2018-11-05T02:47:28.211Z,94.77
2018-11-05T02:52:31.848Z,89.73
2018-11-05T02:57:35.732Z,85.30
2018-11-05T03:02:39.449Z,97.57
2018-11-05T03:07:43.883Z,93.03
2018-11-05T03:12:48.127Z,87.60
2018-11-05T03:17:51.831Z,79.00
2018-11-05T03:22:55.448Z,90.37
2018-11-05T03:27:59.134Z,96.60
2018-11-05T03:33:02.768Z,90.97
2018-11-05T03:38:06.412Z,85.33
2018-11-05T03:43:10.135Z,89.33
2018-11-05T03:48:13.772Z,93.87
2018-11-05T03:53:17.462Z,88.17
2018-11-05T03:58:21.095Z,93.93
2018-11-05T04:03:24.754Z,97.73
2018-11-05T04:08:28.340Z,90.60
2018-11-05T04:13:32.131Z,105.07
2018-11-05T04:18:35.922Z,87.93
2018-11-05T04:23:39.580Z,90.07
2018-11-05T04:28:43.212Z,95.40
2018-11-05T04:33:46.929Z,91.77
2018-11-05T04:38:50.548Z,81.73
2018-11-05T04:43:54.187Z,90.27
2018-11-05T04:48:57.876Z,81.03
2018-11-05T04:54:01.528Z,78.63
2018-11-05T04:59:06.161Z,89.73
2018-11-05T05:04:09.841Z,82.63
2018-11-05T05:09:13.588Z,88.60
2018-11-05T05:14:17.204Z,80.87
2018-11-05T05:19:20.849Z,96.17
2018-11-05T05:24:24.543Z,80.77
2018-11-05T05:29:28.180Z,79.67
2018-11-05T05:34:31.807Z,87.63
2018-11-05T05:39:35.444Z,87.93
2018-11-05T05:44:39.194Z,79.70
2018-11-05T05:49:42.840Z,91.30
2018-11-05T05:54:46.551Z,79.33
2018-11-05T05:59:50.228Z,95.83
2018-11-05T06:04:53.812Z,91.27
2018-11-05T06:09:57.448Z,84.53
2018-11-05T06:15:01.101Z,85.90
2018-11-05T06:20:05.959Z,79.60
2018-11-05T06:25:09.589Z,86.30
2018-11-05T06:30:15.560Z,80.80
2018-11-05T06:35:19.734Z,73.47
2018-11-05T06:40:23.323Z,83.90
2018-11-05T06:45:26.997Z,89.23
2018-11-05T06:50:30.609Z,81.27
2018-11-05T06:55:34.316Z,89.53
2018-11-05T07:00:37.955Z,92.03
2018-11-05T07:05:42.509Z,86.70
2018-11-05T07:10:46.986Z,81.07
2018-11-05T07:15:50.831Z,71.23
2018-11-05T07:20:54.480Z,70.60
2018-11-05T07:25:58.170Z,89.77
2018-11-05T07:31:01.814Z,75.27
2018-11-05T07:36:05.503Z,74.70
2018-11-05T07:41:09.145Z,71.97
2018-11-05T07:46:12.750Z,70.27
2018-11-05T07:51:16.408Z,75.10
2018-11-05T07:56:20.108Z,77.27
2018-11-05T08:01:23.708Z,74.90
2018-11-05T08:06:27.356Z,80.23
2018-11-05T08:11:30.983Z,70.40
2018-11-05T08:16:34.889Z,72.47
2018-11-05T08:21:38.537Z,75.83
2018-11-05T08:26:42.174Z,66.07
2018-11-05T08:31:45.825Z,79.97
2018-11-05T08:36:49.438Z,76.47
2018-11-05T08:41:53.160Z,70.53
2018-11-05T08:46:56.882Z,81.03
2018-11-05T08:52:00.435Z,72.60
2018-11-05T08:57:04.096Z,71.83
2018-11-05T09:02:07.736Z,70.93
2018-11-05T09:07:11.364Z,72.77
2018-11-05T09:12:15.059Z,70.83
2018-11-05T09:17:18.674Z,70.10
2018-11-05T09:22:22.347Z,72.30
2018-11-05T09:27:26.012Z,68.20
2018-11-05T09:32:29.750Z,60.93
2018-11-05T09:37:33.460Z,69.13
2018-11-05T09:42:37.396Z,66.27
2018-11-05T09:47:41.657Z,64.53
2018-11-05T09:52:45.336Z,68.80
2018-11-05T09:57:48.946Z,69.83
2018-11-05T10:03:00.900Z,65.47
2018-11-05T10:08:04.451Z,69.83
2018-11-05T10:13:08.105Z,64.87
2018-11-05T10:18:11.719Z,72.57
2018-11-05T10:23:15.343Z,57.53
2018-11-05T10:28:19.228Z,57.80
2018-11-05T10:33:23.248Z,64.00
2018-11-05T10:38:27.369Z,53.40
2018-11-05T10:43:31.028Z,66.07
2018-11-05T10:48:34.763Z,58.87
2018-11-05T10:53:38.382Z,58.20
2018-11-05T10:58:42.028Z,58.50
2018-11-05T11:03:51.003Z,61.47
2018-11-05T11:08:54.609Z,60.77
2018-11-05T11:13:58.267Z,55.80
2018-11-05T11:19:01.902Z,68.83
2018-11-05T11:24:05.592Z,61.90
2018-11-05T11:29:11.703Z,61.17
2018-11-05T11:34:15.527Z,58.03
2018-11-05T11:39:19.222Z,56.33
2018-11-05T11:44:23.003Z,57.13
2018-11-05T11:49:26.540Z,55.03
2018-11-05T11:54:30.259Z,58.63
2018-11-05T11:59:33.983Z,54.00
2018-11-05T12:04:37.631Z,52.43
2018-11-05T12:09:41.258Z,48.87
2018-11-05T12:14:45.091Z,49.43
2018-11-05T12:19:48.580Z,49.97
2018-11-05T12:24:52.308Z,42.67
2018-11-05T12:29:55.920Z,47.33
2018-11-05T12:34:59.602Z,54.87
2018-11-05T12:40:03.276Z,56.50
2018-11-05T12:45:07.690Z,47.67
2018-11-05T12:50:15.807Z,44.77
2018-11-05T12:55:19.739Z,50.77
2018-11-05T13:00:25.287Z,47.63
2018-11-05T13:05:30.134Z,46.03
2018-11-05T13:10:33.755Z,46.60
2018-11-05T13:15:37.429Z,47.67
2018-11-05T13:20:41.094Z,49.50
2018-11-05T13:25:45.807Z,44.97
2018-11-05T13:30:49.588Z,46.37
2018-11-05T13:35:53.252Z,48.00
2018-11-05T13:40:57.087Z,49.43
2018-11-05T13:46:01.239Z,47.63
2018-11-05T13:51:05.175Z,43.83
2018-11-05T13:56:08.860Z,55.43
2018-11-05T14:01:12.461Z,62.27
2018-11-05T14:06:16.551Z,59.00
2018-11-05T14:11:20.275Z,54.73
2018-11-05T14:16:23.944Z,57.30
2018-11-05T14:21:27.582Z,49.40
2018-11-05T14:26:31.250Z,58.87
2018-11-05T14:31:34.928Z,54.23
2018-11-05T14:36:38.989Z,46.73
2018-11-05T14:41:37.606Z,50.77
2018-11-05T14:46:36.216Z,50.23
2018-11-05T14:51:35.012Z,53.20
2018-11-05T14:56:33.626Z,49.73
2018-11-05T15:01:34.441Z,54.97
2018-11-05T15:06:33.168Z,56.73
2018-11-05T15:11:31.780Z,49.60
2018-11-05T15:16:30.395Z,53.70
2018-11-05T15:21:29.075Z,52.97
2018-11-05T15:26:27.823Z,52.10
2018-11-05T15:31:26.480Z,58.90
2018-11-05T15:36:25.092Z,58.00
2018-11-05T15:41:23.743Z,59.13
2018-11-05T15:46:22.551Z,44.77
2018-11-05T15:51:21.473Z,54.77
2018-11-05T15:56:20.025Z,51.43
2018-11-05T16:01:18.852Z,54.93
2018-11-05T16:06:17.788Z,54.40
2018-11-05T16:11:16.412Z,53.87
2018-11-05T16:16:15.221Z,61.70
2018-11-05T16:21:13.971Z,55.50
2018-11-05T16:26:13.292Z,53.10
2018-11-05T16:31:11.932Z,47.37
2018-11-05T16:36:10.623Z,52.20
2018-11-05T16:41:09.322Z,42.60
2018-11-05T16:46:08.434Z,50.00
2018-11-05T16:51:07.128Z,45.97
2018-11-05T16:56:05.846Z,46.30
2018-11-05T17:01:04.683Z,45.00
2018-11-05T17:06:03.274Z,45.63
2018-11-05T17:11:01.952Z,47.17
2018-11-05T17:16:01.201Z,45.77
2018-11-05T17:21:00.054Z,49.60
2018-11-05T17:25:58.803Z,41.67
2018-11-05T17:30:57.486Z,38.47
2018-11-05T17:35:56.286Z,47.43
2018-11-05T17:40:55.042Z,45.77
2018-11-05T17:45:53.937Z,38.90
2018-11-05T17:50:53.052Z,48.00
2018-11-05T17:55:51.892Z,40.37
2018-11-05T18:00:50.864Z,38.93
2018-11-05T18:05:49.540Z,47.53
2018-11-05T18:10:48.783Z,51.03
2018-11-05T18:15:47.800Z,48.50
2018-11-05T18:20:46.444Z,37.90
2018-11-05T18:25:45.189Z,39.10
2018-11-05T18:30:44.125Z,39.03
2018-11-05T18:35:42.984Z,48.37
2018-11-05T18:40:41.611Z,41.97
2018-11-05T18:45:40.359Z,45.30
2018-11-05T18:50:39.014Z,40.60
2018-11-05T18:55:37.758Z,39.57
2018-11-05T19:00:36.412Z,32.90
2018-11-05T19:05:35.169Z,44.60
2018-11-05T19:10:33.832Z,40.70
2018-11-05T19:15:32.544Z,37.53
2018-11-05T19:20:31.247Z,43.97
2018-11-05T19:25:30.637Z,41.47
2018-11-05T19:30:29.341Z,35.57
2018-11-05T19:35:27.956Z,36.90
2018-11-05T19:40:26.727Z,38.47
2018-11-05T19:45:25.848Z,42.10
2018-11-05T19:50:24.960Z,36.30
2018-11-05T19:55:23.718Z,40.93
2018-11-05T20:00:25.405Z,38.03
2018-11-05T20:05:24.000Z,39.57
2018-11-05T20:10:22.648Z,35.80
2018-11-05T20:15:21.291Z,38.53
2018-11-05T20:20:21.133Z,36.90
2018-11-05T20:25:19.928Z,38.40
2018-11-05T20:30:20.905Z,38.90
2018-11-05T20:35:19.506Z,35.97
2018-11-05T20:40:19.256Z,32.97
2018-11-05T20:45:18.635Z,40.17
2018-11-05T20:50:17.869Z,35.87
2018-11-05T20:55:17.473Z,39.00
2018-11-05T21:00:17.496Z,35.27
2018-11-05T21:05:16.127Z,35.40
2018-11-05T21:10:15.714Z,34.93
2018-11-05T21:15:17.619Z,32.03
2018-11-05T21:20:16.583Z,37.60
2018-11-05T21:25:15.236Z,32.40
2018-11-05T21:30:16.074Z,25.80
2018-11-05T21:35:16.337Z,27.10
2018-11-05T21:40:16.121Z,27.60
2018-11-05T21:45:15.436Z,34.00
2018-11-05T21:50:15.577Z,33.87
2018-11-05T21:55:14.116Z,28.33
2018-11-05T22:00:15.211Z,31.13
2018-11-05T22:05:14.426Z,27.13
2018-11-05T22:10:13.667Z,25.97
2018-11-05T22:15:12.371Z,29.37
2018-11-05T22:20:11.789Z,25.87
2018-11-05T22:25:11.099Z,30.53
2018-11-05T22:30:10.910Z,25.87
2018-11-05T22:35:10.547Z,30.40
2018-11-05T22:40:10.680Z,23.23
2018-11-05T22:45:10.398Z,28.53
2018-11-05T22:50:09.422Z,27.50
2018-11-05T22:55:09.516Z,23.03
2018-11-05T23:00:15.305Z,20.90
2018-11-05T23:05:14.314Z,24.10
2018-11-05T23:10:13.235Z,21.63
2018-11-05T23:15:12.026Z,21.30
2018-11-05T23:20:11.144Z,22.60
2018-11-05T23:25:09.836Z,22.77
2018-11-05T23:30:11.100Z,21.27
2018-11-05T23:35:10.544Z,27.33
2018-11-05T23:40:09.525Z,24.93
2018-11-05T23:45:10.492Z,22.00
2018-11-05T23:50:09.506Z,23.13
2018-11-05T23:55:09.132Z,24.40
